sensor_id;sensor_type;location;lat;lon;timestamp;temperature;humidity
9329;DHT22;4703;48.748;19.142;2023-04-03T00:01:18;5.30;86.10
9329;DHT22;4703;48.748;19.142;2023-04-03T00:03:45;5.40;85.80
9329;DHT22;4703;48.748;19.142;2023-04-03T00:06:13;5.50;85.40
9329;DHT22;4703;48.748;19.142;2023-04-03T00:08:40;5.50;86.20
9329;DHT22;4703;48.748;19.142;2023-04-03T00:11:08;5.50;86.00
9329;DHT22;4703;48.748;19.142;2023-04-03T00:13:36;5.50;85.60
9329;DHT22;4703;48.748;19.142;2023-04-03T00:16:05;5.50;86.40
9329;DHT22;4703;48.748;19.142;2023-04-03T00:18:32;5.50;86.30
9329;DHT22;4703;48.748;19.142;2023-04-03T00:20:59;5.40;85.90
9329;DHT22;4703;48.748;19.142;2023-04-03T00:23:26;5.40;86.20
9329;DHT22;4703;48.748;19.142;2023-04-03T00:25:54;5.40;86.60
9329;DHT22;4703;48.748;19.142;2023-04-03T00:28:21;5.30;86.60
9329;DHT22;4703;48.748;19.142;2023-04-03T00:30:49;5.30;86.50
9329;DHT22;4703;48.748;19.142;2023-04-03T00:33:17;5.30;86.50
9329;DHT22;4703;48.748;19.142;2023-04-03T00:35:44;7.60;89.00
9329;DHT22;4703;48.748;19.142;2023-04-03T00:38:11;5.30;86.90
9329;DHT22;4703;48.748;19.142;2023-04-03T00:40:42;5.30;86.90
9329;DHT22;4703;48.748;19.142;2023-04-03T00:43:17;5.30;86.60
9329;DHT22;4703;48.748;19.142;2023-04-03T00:45:51;5.30;86.60
9329;DHT22;4703;48.748;19.142;2023-04-03T00:48:31;5.30;87.00
9329;DHT22;4703;48.748;19.142;2023-04-03T00:51:01;5.30;87.20
9329;DHT22;4703;48.748;19.142;2023-04-03T00:53:37;5.30;88.30
9329;DHT22;4703;48.748;19.142;2023-04-03T00:56:09;5.30;87.30
9329;DHT22;4703;48.748;19.142;2023-04-03T00:58:43;5.70;88.30
9329;DHT22;4703;48.748;19.142;2023-04-03T01:01:22;5.20;87.50
9329;DHT22;4703;48.748;19.142;2023-04-03T01:03:51;5.30;87.70
9329;DHT22;4703;48.748;19.142;2023-04-03T01:06:21;7.40;90.00
9329;DHT22;4703;48.748;19.142;2023-04-03T01:08:52;5.30;87.90
9329;DHT22;4703;48.748;19.142;2023-04-03T01:11:19;5.30;88.00
9329;DHT22;4703;48.748;19.142;2023-04-03T01:13:48;5.30;87.80
9329;DHT22;4703;48.748;19.142;2023-04-03T01:16:15;5.30;88.30
9329;DHT22;4703;48.748;19.142;2023-04-03T01:18:43;5.20;88.90
9329;DHT22;4703;48.748;19.142;2023-04-03T01:24:30;5.20;89.40
9329;DHT22;4703;48.748;19.142;2023-04-03T01:27:03;5.20;89.40
9329;DHT22;4703;48.748;19.142;2023-04-03T01:29:31;5.10;89.70
9329;DHT22;4703;48.748;19.142;2023-04-03T01:31:59;5.20;89.90
9329;DHT22;4703;48.748;19.142;2023-04-03T01:34:29;6.30;90.10
9329;DHT22;4703;48.748;19.142;2023-04-03T01:36:56;5.20;89.40
9329;DHT22;4703;48.748;19.142;2023-04-03T01:39:24;5.10;89.80
9329;DHT22;4703;48.748;19.142;2023-04-03T01:41:51;8.00;91.20
9329;DHT22;4703;48.748;19.142;2023-04-03T01:44:18;5.10;89.30
9329;DHT22;4703;48.748;19.142;2023-04-03T01:46:45;5.10;89.50
9329;DHT22;4703;48.748;19.142;2023-04-03T01:49:12;5.20;89.50
9329;DHT22;4703;48.748;19.142;2023-04-03T01:51:39;5.20;89.40
9329;DHT22;4703;48.748;19.142;2023-04-03T01:54:06;7.70;90.70
9329;DHT22;4703;48.748;19.142;2023-04-03T01:56:33;5.10;89.10
9329;DHT22;4703;48.748;19.142;2023-04-03T01:58:59;5.20;89.30
9329;DHT22;4703;48.748;19.142;2023-04-03T02:01:26;5.20;89.30
9329;DHT22;4703;48.748;19.142;2023-04-03T02:03:53;7.60;91.00
9329;DHT22;4703;48.748;19.142;2023-04-03T02:06:21;5.20;89.70
9329;DHT22;4703;48.748;19.142;2023-04-03T02:08:48;7.90;90.80
9329;DHT22;4703;48.748;19.142;2023-04-03T02:11:15;7.70;90.90
9329;DHT22;4703;48.748;19.142;2023-04-03T02:13:42;5.10;89.40
9329;DHT22;4703;48.748;19.142;2023-04-03T02:16:10;5.80;89.90
9329;DHT22;4703;48.748;19.142;2023-04-03T02:18:38;5.10;89.40
9329;DHT22;4703;48.748;19.142;2023-04-03T02:21:05;5.00;89.60
9329;DHT22;4703;48.748;19.142;2023-04-03T02:23:33;8.10;90.80
9329;DHT22;4703;48.748;19.142;2023-04-03T02:26:11;5.00;89.00
9329;DHT22;4703;48.748;19.142;2023-04-03T02:28:40;5.10;89.10
9329;DHT22;4703;48.748;19.142;2023-04-03T02:31:08;5.10;90.00
9329;DHT22;4703;48.748;19.142;2023-04-03T02:33:36;5.10;90.00
9329;DHT22;4703;48.748;19.142;2023-04-03T02:36:05;5.10;90.30
9329;DHT22;4703;48.748;19.142;2023-04-03T02:38:32;5.10;90.30
9329;DHT22;4703;48.748;19.142;2023-04-03T02:41:08;5.10;90.20
9329;DHT22;4703;48.748;19.142;2023-04-03T02:43:37;5.10;90.30
9329;DHT22;4703;48.748;19.142;2023-04-03T02:46:05;5.10;90.50
9329;DHT22;4703;48.748;19.142;2023-04-03T02:48:33;5.10;90.50
9329;DHT22;4703;48.748;19.142;2023-04-03T02:51:00;5.10;90.80
9329;DHT22;4703;48.748;19.142;2023-04-03T02:53:27;5.10;90.90
9329;DHT22;4703;48.748;19.142;2023-04-03T02:55:54;5.70;91.10
9329;DHT22;4703;48.748;19.142;2023-04-03T02:58:21;8.30;92.50
9329;DHT22;4703;48.748;19.142;2023-04-03T03:00:48;6.50;91.70
9329;DHT22;4703;48.748;19.142;2023-04-03T03:03:15;5.10;91.10
9329;DHT22;4703;48.748;19.142;2023-04-03T03:05:42;7.70;91.90
9329;DHT22;4703;48.748;19.142;2023-04-03T03:08:09;7.70;91.70
9329;DHT22;4703;48.748;19.142;2023-04-03T03:10:36;7.60;91.30
9329;DHT22;4703;48.748;19.142;2023-04-03T03:13:04;5.10;90.00
9329;DHT22;4703;48.748;19.142;2023-04-03T03:15:31;5.10;90.00
9329;DHT22;4703;48.748;19.142;2023-04-03T03:17:58;5.10;90.20
9329;DHT22;4703;48.748;19.142;2023-04-03T03:20:25;5.10;90.30
9329;DHT22;4703;48.748;19.142;2023-04-03T03:22:52;5.10;90.40
9329;DHT22;4703;48.748;19.142;2023-04-03T03:25:19;5.00;90.10
9329;DHT22;4703;48.748;19.142;2023-04-03T03:27:46;5.00;90.00
9329;DHT22;4703;48.748;19.142;2023-04-03T03:30:13;7.40;91.10
9329;DHT22;4703;48.748;19.142;2023-04-03T03:32:40;5.00;90.40
9329;DHT22;4703;48.748;19.142;2023-04-03T03:35:07;5.00;90.00
9329;DHT22;4703;48.748;19.142;2023-04-03T03:37:34;5.00;90.20
9329;DHT22;4703;48.748;19.142;2023-04-03T03:40:01;5.90;90.50
9329;DHT22;4703;48.748;19.142;2023-04-03T03:42:29;6.40;90.70
9329;DHT22;4703;48.748;19.142;2023-04-03T03:44:56;4.90;90.10
9329;DHT22;4703;48.748;19.142;2023-04-03T03:47:23;4.90;90.50
9329;DHT22;4703;48.748;19.142;2023-04-03T03:49:50;7.10;91.60
9329;DHT22;4703;48.748;19.142;2023-04-03T03:52:17;4.80;90.60
9329;DHT22;4703;48.748;19.142;2023-04-03T03:54:44;4.90;90.80
9329;DHT22;4703;48.748;19.142;2023-04-03T03:57:11;4.80;90.40
9329;DHT22;4703;48.748;19.142;2023-04-03T03:59:38;4.80;90.10
9329;DHT22;4703;48.748;19.142;2023-04-03T04:02:06;4.80;89.50
9329;DHT22;4703;48.748;19.142;2023-04-03T04:04:34;4.90;89.80
9329;DHT22;4703;48.748;19.142;2023-04-03T04:07:01;4.90;89.70
9329;DHT22;4703;48.748;19.142;2023-04-03T04:09:28;4.90;89.30
9329;DHT22;4703;48.748;19.142;2023-04-03T04:11:55;4.80;88.90
9329;DHT22;4703;48.748;19.142;2023-04-03T04:14:22;4.90;89.00
9329;DHT22;4703;48.748;19.142;2023-04-03T04:16:49;4.90;89.40
9329;DHT22;4703;48.748;19.142;2023-04-03T04:19:17;4.90;89.50
9329;DHT22;4703;48.748;19.142;2023-04-03T04:21:44;4.90;89.50
9329;DHT22;4703;48.748;19.142;2023-04-03T04:24:11;4.90;88.90
9329;DHT22;4703;48.748;19.142;2023-04-03T04:26:37;4.80;88.00
9329;DHT22;4703;48.748;19.142;2023-04-03T04:29:05;7.70;90.70
9329;DHT22;4703;48.748;19.142;2023-04-03T04:31:32;6.00;90.50
9329;DHT22;4703;48.748;19.142;2023-04-03T04:34:01;7.90;91.20
9329;DHT22;4703;48.748;19.142;2023-04-03T04:36:28;7.50;91.20
9329;DHT22;4703;48.748;19.142;2023-04-03T04:38:55;4.70;89.60
9329;DHT22;4703;48.748;19.142;2023-04-03T04:41:23;4.80;89.30
9329;DHT22;4703;48.748;19.142;2023-04-03T04:43:50;4.90;88.70
9329;DHT22;4703;48.748;19.142;2023-04-03T04:46:18;4.90;88.50
9329;DHT22;4703;48.748;19.142;2023-04-03T04:48:45;7.30;90.70
9329;DHT22;4703;48.748;19.142;2023-04-03T04:51:12;4.90;89.30
9329;DHT22;4703;48.748;19.142;2023-04-03T04:53:39;7.90;90.20
9329;DHT22;4703;48.748;19.142;2023-04-03T04:56:06;4.90;87.70
9329;DHT22;4703;48.748;19.142;2023-04-03T04:58:33;5.00;88.30
9329;DHT22;4703;48.748;19.142;2023-04-03T05:01:02;5.00;88.30
9329;DHT22;4703;48.748;19.142;2023-04-03T05:03:30;4.90;88.20
9329;DHT22;4703;48.748;19.142;2023-04-03T05:05:57;5.40;87.70
9329;DHT22;4703;48.748;19.142;2023-04-03T05:08:24;5.10;87.40
9329;DHT22;4703;48.748;19.142;2023-04-03T05:10:52;5.00;87.20
9329;DHT22;4703;48.748;19.142;2023-04-03T05:13:21;5.10;87.80
9329;DHT22;4703;48.748;19.142;2023-04-03T05:15:49;8.50;90.50
9329;DHT22;4703;48.748;19.142;2023-04-03T05:18:16;6.40;89.10
9329;DHT22;4703;48.748;19.142;2023-04-03T05:20:43;5.10;86.80
9329;DHT22;4703;48.748;19.142;2023-04-03T05:23:10;5.70;87.20
9329;DHT22;4703;48.748;19.142;2023-04-03T05:25:38;7.60;89.00
9329;DHT22;4703;48.748;19.142;2023-04-03T05:28:06;5.20;85.00
9329;DHT22;4703;48.748;19.142;2023-04-03T05:30:34;5.20;85.10
9329;DHT22;4703;48.748;19.142;2023-04-03T05:33:01;5.30;85.00
9329;DHT22;4703;48.748;19.142;2023-04-03T05:35:28;7.10;87.10
9329;DHT22;4703;48.748;19.142;2023-04-03T05:37:55;5.30;84.60
9329;DHT22;4703;48.748;19.142;2023-04-03T05:40:23;5.40;84.00
9329;DHT22;4703;48.748;19.142;2023-04-03T05:42:50;7.70;85.60
9329;DHT22;4703;48.748;19.142;2023-04-03T05:45:17;5.40;83.50
9329;DHT22;4703;48.748;19.142;2023-04-03T05:47:44;5.40;83.40
9329;DHT22;4703;48.748;19.142;2023-04-03T05:50:11;5.40;82.80
9329;DHT22;4703;48.748;19.142;2023-04-03T05:52:41;5.40;82.00
9329;DHT22;4703;48.748;19.142;2023-04-03T05:55:10;8.10;83.70
9329;DHT22;4703;48.748;19.142;2023-04-03T05:57:37;6.90;83.50
9329;DHT22;4703;48.748;19.142;2023-04-03T06:00:07;5.40;83.30
9329;DHT22;4703;48.748;19.142;2023-04-03T06:02:36;5.40;81.10
9329;DHT22;4703;48.748;19.142;2023-04-03T06:05:03;5.40;81.60
9329;DHT22;4703;48.748;19.142;2023-04-03T06:07:30;5.40;80.40
9329;DHT22;4703;48.748;19.142;2023-04-03T06:09:58;5.40;80.80
9329;DHT22;4703;48.748;19.142;2023-04-03T06:12:24;5.40;80.90
9329;DHT22;4703;48.748;19.142;2023-04-03T06:14:52;5.40;81.10
9329;DHT22;4703;48.748;19.142;2023-04-03T06:17:19;5.50;80.90
9329;DHT22;4703;48.748;19.142;2023-04-03T06:19:46;5.50;80.90
9329;DHT22;4703;48.748;19.142;2023-04-03T06:22:14;5.60;81.00
9329;DHT22;4703;48.748;19.142;2023-04-03T06:24:42;5.60;80.20
9329;DHT22;4703;48.748;19.142;2023-04-03T06:27:10;5.60;80.30
9329;DHT22;4703;48.748;19.142;2023-04-03T06:29:38;7.80;83.10
9329;DHT22;4703;48.748;19.142;2023-04-03T06:32:05;5.70;80.70
9329;DHT22;4703;48.748;19.142;2023-04-03T06:34:32;5.80;79.80
9329;DHT22;4703;48.748;19.142;2023-04-03T06:36:59;7.80;81.40
9329;DHT22;4703;48.748;19.142;2023-04-03T06:39:26;5.80;78.70
9329;DHT22;4703;48.748;19.142;2023-04-03T06:41:53;8.60;81.00
9329;DHT22;4703;48.748;19.142;2023-04-03T06:44:21;6.00;79.00
9329;DHT22;4703;48.748;19.142;2023-04-03T06:46:47;6.00;77.80
9329;DHT22;4703;48.748;19.142;2023-04-03T06:49:15;6.00;77.60
9329;DHT22;4703;48.748;19.142;2023-04-03T06:51:42;6.10;77.80
9329;DHT22;4703;48.748;19.142;2023-04-03T06:54:09;6.10;76.90
9329;DHT22;4703;48.748;19.142;2023-04-03T06:56:36;6.10;77.50
9329;DHT22;4703;48.748;19.142;2023-04-03T06:59:03;6.10;77.00
9329;DHT22;4703;48.748;19.142;2023-04-03T07:01:30;6.10;76.70
9329;DHT22;4703;48.748;19.142;2023-04-03T07:03:57;6.10;76.70
9329;DHT22;4703;48.748;19.142;2023-04-03T07:06:24;6.20;76.80
9329;DHT22;4703;48.748;19.142;2023-04-03T07:08:55;6.20;76.30
9329;DHT22;4703;48.748;19.142;2023-04-03T07:11:22;6.20;77.30
9329;DHT22;4703;48.748;19.142;2023-04-03T07:13:50;6.20;77.20
9329;DHT22;4703;48.748;19.142;2023-04-03T07:16:17;6.10;77.90
9329;DHT22;4703;48.748;19.142;2023-04-03T07:18:45;6.10;78.20
9329;DHT22;4703;48.748;19.142;2023-04-03T07:21:13;6.50;77.30
9329;DHT22;4703;48.748;19.142;2023-04-03T07:23:40;6.10;77.70
9329;DHT22;4703;48.748;19.142;2023-04-03T07:26:07;6.10;79.50
9329;DHT22;4703;48.748;19.142;2023-04-03T07:28:34;6.20;78.60
9329;DHT22;4703;48.748;19.142;2023-04-03T07:31:05;8.10;78.20
9329;DHT22;4703;48.748;19.142;2023-04-03T07:33:35;6.20;77.00
9329;DHT22;4703;48.748;19.142;2023-04-03T07:36:04;6.20;77.60
9329;DHT22;4703;48.748;19.142;2023-04-03T07:38:34;6.20;77.00
9329;DHT22;4703;48.748;19.142;2023-04-03T07:41:03;6.20;76.90
9329;DHT22;4703;48.748;19.142;2023-04-03T07:43:31;6.20;75.80
9329;DHT22;4703;48.748;19.142;2023-04-03T07:45:58;6.10;74.50
9329;DHT22;4703;48.748;19.142;2023-04-03T07:48:25;6.10;75.50
9329;DHT22;4703;48.748;19.142;2023-04-03T07:50:53;6.10;76.10
9329;DHT22;4703;48.748;19.142;2023-04-03T07:53:20;8.50;78.70
9329;DHT22;4703;48.748;19.142;2023-04-03T07:55:48;8.10;78.20
9329;DHT22;4703;48.748;19.142;2023-04-03T07:58:18;6.30;74.90
9329;DHT22;4703;48.748;19.142;2023-04-03T08:00:45;6.30;75.60
9329;DHT22;4703;48.748;19.142;2023-04-03T08:03:12;6.40;75.20
9329;DHT22;4703;48.748;19.142;2023-04-03T08:05:42;8.70;75.70
9329;DHT22;4703;48.748;19.142;2023-04-03T08:08:11;6.50;72.90
9329;DHT22;4703;48.748;19.142;2023-04-03T08:10:40;6.60;73.00
9329;DHT22;4703;48.748;19.142;2023-04-03T08:13:08;9.20;75.00
9329;DHT22;4703;48.748;19.142;2023-04-03T08:15:36;8.70;75.00
9329;DHT22;4703;48.748;19.142;2023-04-03T08:18:03;6.60;74.40
9329;DHT22;4703;48.748;19.142;2023-04-03T08:20:31;6.70;73.20
9329;DHT22;4703;48.748;19.142;2023-04-03T08:22:58;8.70;75.30
9329;DHT22;4703;48.748;19.142;2023-04-03T08:25:25;6.70;72.80
9329;DHT22;4703;48.748;19.142;2023-04-03T08:27:52;6.80;72.60
9329;DHT22;4703;48.748;19.142;2023-04-03T08:30:19;6.80;71.30
9329;DHT22;4703;48.748;19.142;2023-04-03T08:32:46;6.80;71.80
9329;DHT22;4703;48.748;19.142;2023-04-03T08:35:13;6.90;72.10
9329;DHT22;4703;48.748;19.142;2023-04-03T08:37:41;6.90;72.40
9329;DHT22;4703;48.748;19.142;2023-04-03T08:40:14;7.00;71.90
9329;DHT22;4703;48.748;19.142;2023-04-03T08:45:55;7.10;73.60
9329;DHT22;4703;48.748;19.142;2023-04-03T08:48:31;7.40;70.90
9329;DHT22;4703;48.748;19.142;2023-04-03T08:51:04;7.60;71.60
9329;DHT22;4703;48.748;19.142;2023-04-03T08:53:43;7.40;70.80
9329;DHT22;4703;48.748;19.142;2023-04-03T08:56:15;8.40;71.90
9329;DHT22;4703;48.748;19.142;2023-04-03T08:59:03;10.20;71.50
9329;DHT22;4703;48.748;19.142;2023-04-03T09:01:37;7.50;67.30
9329;DHT22;4703;48.748;19.142;2023-04-03T09:04:12;7.50;69.30
9329;DHT22;4703;48.748;19.142;2023-04-03T09:06:44;9.20;69.10
9329;DHT22;4703;48.748;19.142;2023-04-03T09:09:26;8.00;69.40
9329;DHT22;4703;48.748;19.142;2023-04-03T09:15:24;7.70;67.40
9329;DHT22;4703;48.748;19.142;2023-04-03T09:18:21;7.60;68.70
9329;DHT22;4703;48.748;19.142;2023-04-03T09:21:06;7.80;67.00
9329;DHT22;4703;48.748;19.142;2023-04-03T09:23:55;7.60;68.20
9329;DHT22;4703;48.748;19.142;2023-04-03T09:26:30;7.60;66.90
9329;DHT22;4703;48.748;19.142;2023-04-03T09:29:07;7.60;67.90
9329;DHT22;4703;48.748;19.142;2023-04-03T09:31:40;7.60;68.30
9329;DHT22;4703;48.748;19.142;2023-04-03T09:34:30;7.70;68.70
9329;DHT22;4703;48.748;19.142;2023-04-03T09:37:01;7.80;67.60
9329;DHT22;4703;48.748;19.142;2023-04-03T09:39:49;7.80;65.90
9329;DHT22;4703;48.748;19.142;2023-04-03T09:42:23;7.80;68.00
9329;DHT22;4703;48.748;19.142;2023-04-03T09:44:57;7.90;67.90
9329;DHT22;4703;48.748;19.142;2023-04-03T09:47:28;8.00;66.30
9329;DHT22;4703;48.748;19.142;2023-04-03T09:50:19;8.20;67.60
9329;DHT22;4703;48.748;19.142;2023-04-03T09:52:50;8.50;67.10
9329;DHT22;4703;48.748;19.142;2023-04-03T09:55:27;8.60;64.40
9329;DHT22;4703;48.748;19.142;2023-04-03T09:58:00;9.70;65.30
9329;DHT22;4703;48.748;19.142;2023-04-03T10:00:37;8.80;62.90
9329;DHT22;4703;48.748;19.142;2023-04-03T10:03:25;9.90;63.60
9329;DHT22;4703;48.748;19.142;2023-04-03T10:05:55;8.80;62.70
9329;DHT22;4703;48.748;19.142;2023-04-03T10:08:32;10.00;63.90
9329;DHT22;4703;48.748;19.142;2023-04-03T10:13:51;9.60;63.40
9329;DHT22;4703;48.748;19.142;2023-04-03T10:16:35;10.00;60.00
9329;DHT22;4703;48.748;19.142;2023-04-03T10:19:28;10.00;58.00
9329;DHT22;4703;48.748;19.142;2023-04-03T10:22:04;10.00;59.10
9329;DHT22;4703;48.748;19.142;2023-04-03T10:33:35;10.60;55.40
9329;DHT22;4703;48.748;19.142;2023-04-03T10:50:29;11.50;52.80
9329;DHT22;4703;48.748;19.142;2023-04-03T10:55:54;11.80;53.50
9329;DHT22;4703;48.748;19.142;2023-04-03T10:58:36;12.50;55.30
9329;DHT22;4703;48.748;19.142;2023-04-03T11:01:18;11.70;51.70
9329;DHT22;4703;48.748;19.142;2023-04-03T11:03:59;11.80;52.00
9329;DHT22;4703;48.748;19.142;2023-04-03T11:06:35;11.90;52.60
9329;DHT22;4703;48.748;19.142;2023-04-03T11:09:27;12.50;52.70
9329;DHT22;4703;48.748;19.142;2023-04-03T11:12:03;12.10;51.60
9329;DHT22;4703;48.748;19.142;2023-04-03T11:14:35;12.20;51.80
9329;DHT22;4703;48.748;19.142;2023-04-03T11:22:52;12.80;50.00
9329;DHT22;4703;48.748;19.142;2023-04-03T11:25:25;13.20;49.10
9329;DHT22;4703;48.748;19.142;2023-04-03T11:28:00;15.40;50.40
9329;DHT22;4703;48.748;19.142;2023-04-03T11:35:51;12.70;47.70
9329;DHT22;4703;48.748;19.142;2023-04-03T11:38:27;13.20;48.10
9329;DHT22;4703;48.748;19.142;2023-04-03T11:40:58;12.30;47.60
9329;DHT22;4703;48.748;19.142;2023-04-03T11:43:27;12.70;49.40
9329;DHT22;4703;48.748;19.142;2023-04-03T11:46:05;13.30;49.00
9329;DHT22;4703;48.748;19.142;2023-04-03T11:51:37;13.70;49.30
9329;DHT22;4703;48.748;19.142;2023-04-03T11:54:43;12.10;47.90
9329;DHT22;4703;48.748;19.142;2023-04-03T12:08:28;10.80;46.90
9329;DHT22;4703;48.748;19.142;2023-04-03T12:35:40;12.60;46.70
9329;DHT22;4703;48.748;19.142;2023-04-03T12:46:50;13.40;43.70
9329;DHT22;4703;48.748;19.142;2023-04-03T12:49:35;13.30;43.30
9329;DHT22;4703;48.748;19.142;2023-04-03T12:52:39;13.00;41.90
9329;DHT22;4703;48.748;19.142;2023-04-03T12:55:18;12.80;43.10
9329;DHT22;4703;48.748;19.142;2023-04-03T12:57:47;12.70;44.10
9329;DHT22;4703;48.748;19.142;2023-04-03T13:00:34;12.60;43.90
9329;DHT22;4703;48.748;19.142;2023-04-03T13:03:02;12.80;44.90
9329;DHT22;4703;48.748;19.142;2023-04-03T13:05:32;13.00;44.10
9329;DHT22;4703;48.748;19.142;2023-04-03T13:08:10;13.20;43.90
9329;DHT22;4703;48.748;19.142;2023-04-03T13:13:36;12.90;41.10
9329;DHT22;4703;48.748;19.142;2023-04-03T13:16:09;12.60;41.50
9329;DHT22;4703;48.748;19.142;2023-04-03T13:18:38;12.10;41.20
9329;DHT22;4703;48.748;19.142;2023-04-03T13:21:20;11.70;42.10
9329;DHT22;4703;48.748;19.142;2023-04-03T13:23:52;10.80;42.80
9329;DHT22;4703;48.748;19.142;2023-04-03T13:26:40;12.40;45.70
9329;DHT22;4703;48.748;19.142;2023-04-03T13:29:26;10.50;43.90
9329;DHT22;4703;48.748;19.142;2023-04-03T13:31:58;10.30;44.80
9329;DHT22;4703;48.748;19.142;2023-04-03T13:34:29;11.90;46.00
9329;DHT22;4703;48.748;19.142;2023-04-03T13:37:28;10.00;45.50
9329;DHT22;4703;48.748;19.142;2023-04-03T13:40:10;10.10;46.30
9329;DHT22;4703;48.748;19.142;2023-04-03T13:42:40;10.10;46.00
9329;DHT22;4703;48.748;19.142;2023-04-03T13:45:28;11.80;47.70
9329;DHT22;4703;48.748;19.142;2023-04-03T13:48:16;10.50;46.30
9329;DHT22;4703;48.748;19.142;2023-04-03T13:53:30;10.00;46.50
9329;DHT22;4703;48.748;19.142;2023-04-03T13:56:08;11.20;47.60
9329;DHT22;4703;48.748;19.142;2023-04-03T13:58:57;9.70;48.00
9329;DHT22;4703;48.748;19.142;2023-04-03T14:01:44;12.30;49.40
9329;DHT22;4703;48.748;19.142;2023-04-03T14:06:49;11.70;48.50
9329;DHT22;4703;48.748;19.142;2023-04-03T14:09:17;9.70;47.70
9329;DHT22;4703;48.748;19.142;2023-04-03T14:11:47;11.90;49.30
9329;DHT22;4703;48.748;19.142;2023-04-03T14:14:18;10.20;48.00
9329;DHT22;4703;48.748;19.142;2023-04-03T14:16:52;12.10;50.00
9329;DHT22;4703;48.748;19.142;2023-04-03T14:19:28;11.30;49.60
9329;DHT22;4703;48.748;19.142;2023-04-03T14:21:57;9.50;48.70
9329;DHT22;4703;48.748;19.142;2023-04-03T14:24:25;9.20;49.00
9329;DHT22;4703;48.748;19.142;2023-04-03T14:26:54;12.00;50.50
9329;DHT22;4703;48.748;19.142;2023-04-03T14:29:22;9.00;49.20
9329;DHT22;4703;48.748;19.142;2023-04-03T14:31:50;9.20;49.70
9329;DHT22;4703;48.748;19.142;2023-04-03T14:34:29;9.00;49.10
9329;DHT22;4703;48.748;19.142;2023-04-03T14:36:57;10.90;50.20
9329;DHT22;4703;48.748;19.142;2023-04-03T14:39:24;11.40;50.90
9329;DHT22;4703;48.748;19.142;2023-04-03T14:41:51;11.30;50.90
9329;DHT22;4703;48.748;19.142;2023-04-03T14:44:18;11.70;51.80
9329;DHT22;4703;48.748;19.142;2023-04-03T14:46:45;10.90;50.00
9329;DHT22;4703;48.748;19.142;2023-04-03T14:49:25;11.10;48.00
9329;DHT22;4703;48.748;19.142;2023-04-03T14:51:56;13.50;48.40
9329;DHT22;4703;48.748;19.142;2023-04-03T14:54:25;13.50;46.20
9329;DHT22;4703;48.748;19.142;2023-04-03T14:56:55;14.20;45.00
9329;DHT22;4703;48.748;19.142;2023-04-03T14:59:31;16.00;45.60
9329;DHT22;4703;48.748;19.142;2023-04-03T15:01:59;14.10;44.30
9329;DHT22;4703;48.748;19.142;2023-04-03T15:04:26;13.60;42.10
9329;DHT22;4703;48.748;19.142;2023-04-03T15:06:54;13.90;42.30
9329;DHT22;4703;48.748;19.142;2023-04-03T15:09:24;14.20;41.00
9329;DHT22;4703;48.748;19.142;2023-04-03T15:11:54;13.90;39.00
9329;DHT22;4703;48.748;19.142;2023-04-03T15:14:22;14.00;39.50
9329;DHT22;4703;48.748;19.142;2023-04-03T15:17:04;13.40;39.20
9329;DHT22;4703;48.748;19.142;2023-04-03T15:19:37;14.20;40.90
9329;DHT22;4703;48.748;19.142;2023-04-03T15:22:05;16.30;41.20
9329;DHT22;4703;48.748;19.142;2023-04-03T15:24:32;13.50;39.70
9329;DHT22;4703;48.748;19.142;2023-04-03T15:27:00;13.50;39.30
9329;DHT22;4703;48.748;19.142;2023-04-03T15:29:27;14.70;40.00
9329;DHT22;4703;48.748;19.142;2023-04-03T15:31:54;14.30;39.10
9329;DHT22;4703;48.748;19.142;2023-04-03T15:34:22;12.80;38.20
9329;DHT22;4703;48.748;19.142;2023-04-03T15:36:50;12.60;39.20
9329;DHT22;4703;48.748;19.142;2023-04-03T15:39:20;14.30;42.10
9329;DHT22;4703;48.748;19.142;2023-04-03T15:41:47;13.50;42.10
9329;DHT22;4703;48.748;19.142;2023-04-03T15:44:15;13.30;41.70
9329;DHT22;4703;48.748;19.142;2023-04-03T15:46:48;13.70;40.30
9329;DHT22;4703;48.748;19.142;2023-04-03T15:49:19;14.20;38.60
9329;DHT22;4703;48.748;19.142;2023-04-03T15:51:47;14.70;38.20
9329;DHT22;4703;48.748;19.142;2023-04-03T15:54:15;15.40;37.30
9329;DHT22;4703;48.748;19.142;2023-04-03T15:56:42;15.10;36.50
9329;DHT22;4703;48.748;19.142;2023-04-03T15:59:09;15.10;36.40
9329;DHT22;4703;48.748;19.142;2023-04-03T16:01:37;14.90;35.50
9329;DHT22;4703;48.748;19.142;2023-04-03T16:04:07;15.80;37.00
9329;DHT22;4703;48.748;19.142;2023-04-03T16:06:35;14.90;35.70
9329;DHT22;4703;48.748;19.142;2023-04-03T16:09:03;15.20;37.00
9329;DHT22;4703;48.748;19.142;2023-04-03T16:11:30;13.40;36.90
9329;DHT22;4703;48.748;19.142;2023-04-03T16:13:57;15.20;38.20
9329;DHT22;4703;48.748;19.142;2023-04-03T16:16:25;15.30;37.80
9329;DHT22;4703;48.748;19.142;2023-04-03T16:18:54;14.00;36.50
9329;DHT22;4703;48.748;19.142;2023-04-03T16:21:22;13.20;35.60
9329;DHT22;4703;48.748;19.142;2023-04-03T16:23:49;12.60;36.30
9329;DHT22;4703;48.748;19.142;2023-04-03T16:26:17;11.90;37.20
9329;DHT22;4703;48.748;19.142;2023-04-03T16:28:44;12.50;39.60
9329;DHT22;4703;48.748;19.142;2023-04-03T16:31:11;10.20;39.40
9329;DHT22;4703;48.748;19.142;2023-04-03T16:33:38;11.60;41.60
9329;DHT22;4703;48.748;19.142;2023-04-03T16:36:06;8.90;42.00
9329;DHT22;4703;48.748;19.142;2023-04-03T16:38:33;8.20;43.00
9329;DHT22;4703;48.748;19.142;2023-04-03T16:41:00;10.20;44.20
9329;DHT22;4703;48.748;19.142;2023-04-03T16:43:31;7.40;43.90
9329;DHT22;4703;48.748;19.142;2023-04-03T16:45:59;9.60;46.40
9329;DHT22;4703;48.748;19.142;2023-04-03T16:48:29;6.80;45.10
9329;DHT22;4703;48.748;19.142;2023-04-03T16:50:57;6.50;45.60
9329;DHT22;4703;48.748;19.142;2023-04-03T16:53:26;6.20;45.70
9329;DHT22;4703;48.748;19.142;2023-04-03T16:55:53;5.90;46.20
9329;DHT22;4703;48.748;19.142;2023-04-03T16:58:21;5.60;45.90
9329;DHT22;4703;48.748;19.142;2023-04-03T17:00:50;5.40;45.20
9329;DHT22;4703;48.748;19.142;2023-04-03T17:03:17;5.10;45.30
9329;DHT22;4703;48.748;19.142;2023-04-03T17:05:47;5.10;46.80
9329;DHT22;4703;48.748;19.142;2023-04-03T17:08:16;5.00;45.40
9329;DHT22;4703;48.748;19.142;2023-04-03T17:10:43;6.70;46.60
9329;DHT22;4703;48.748;19.142;2023-04-03T17:13:10;7.30;47.00
9329;DHT22;4703;48.748;19.142;2023-04-03T17:15:37;4.80;44.80
9329;DHT22;4703;48.748;19.142;2023-04-03T17:18:05;4.80;45.90
9329;DHT22;4703;48.748;19.142;2023-04-03T17:20:33;6.40;46.80
9329;DHT22;4703;48.748;19.142;2023-04-03T17:23:02;4.70;45.60
9329;DHT22;4703;48.748;19.142;2023-04-03T17:25:29;7.20;48.10
9329;DHT22;4703;48.748;19.142;2023-04-03T17:27:56;4.50;45.90
9329;DHT22;4703;48.748;19.142;2023-04-03T17:30:23;4.50;45.80
9329;DHT22;4703;48.748;19.142;2023-04-03T17:32:50;4.30;46.00
9329;DHT22;4703;48.748;19.142;2023-04-03T17:35:17;4.30;46.40
9329;DHT22;4703;48.748;19.142;2023-04-03T17:37:44;4.40;46.90
9329;DHT22;4703;48.748;19.142;2023-04-03T17:40:11;4.20;46.70
9329;DHT22;4703;48.748;19.142;2023-04-03T17:42:40;4.20;46.90
9329;DHT22;4703;48.748;19.142;2023-04-03T17:45:07;4.20;46.60
9329;DHT22;4703;48.748;19.142;2023-04-03T17:47:35;4.10;47.10
9329;DHT22;4703;48.748;19.142;2023-04-03T17:50:02;4.10;47.20
9329;DHT22;4703;48.748;19.142;2023-04-03T17:52:29;4.00;46.80
9329;DHT22;4703;48.748;19.142;2023-04-03T17:54:57;5.70;47.90
9329;DHT22;4703;48.748;19.142;2023-04-03T17:57:24;3.90;46.60
9329;DHT22;4703;48.748;19.142;2023-04-03T17:59:51;7.60;49.80
9329;DHT22;4703;48.748;19.142;2023-04-03T18:02:19;7.50;50.10